Terminal Aerodrome Forecast
Issued by NWS Cleveland, OH

Home | Current Version | Previous Version | Graphics & Text | Print | Product List | Glossary On
Versions: 1 2 3 4 5 6 7 8 9 10 11 12
000
FTUS41 KCLE 100500
TAFTOL
TAF
KTOL 100523Z 1006/1106 32004KT P6SM SKC
      TEMPO 1010/1012 4SM BR
     FM101500 01006KT P6SM SCT040=

USA.gov is the U.S. government's official web portal to all federal, state and local government web resources and services.